Time;durP1;ratioP1;P1;durP2;ratioP2;P2;SDS_P1;SDS_P2;PMS_P1;PMS_P2;Temp;Humidity;BMP_temperature;BMP_pressure;BME280_temperature;BME280_humidity;BME280_pressure;Samples;Min_cycle;Max_cycle;Signal;HPM_P1;HPM_P2
2022/04/10 00:01:09;;;;;;;4.60;3.33;;;;;;;3.37;100.00;152230.69;5050107;28;21004;-76
2022/04/10 00:03:45;;;;;;;4.60;3.63;;;;;;;3.38;100.00;152232.00;5046549;28;20533;-76
2022/04/10 00:06:21;;;;;;;5.70;3.60;;;;;;;3.34;100.00;152222.97;5052053;28;20475;-76
2022/04/10 00:08:56;;;;;;;4.73;3.63;;;;;;;3.33;100.00;152219.13;5051972;28;20458;-76
2022/04/10 00:11:32;;;;;;;4.30;3.10;;;;;;;3.33;100.00;152220.41;5067471;28;20455;-76
2022/04/10 00:14:09;;;;;;;4.20;3.73;;;;;;;3.33;100.00;152220.41;5031273;28;20455;-76
2022/04/10 00:16:44;;;;;;;4.23;3.57;;;;;;;3.32;100.00;152216.53;5049774;28;20796;-76
2022/04/10 00:19:20;;;;;;;4.73;3.80;;;;;;;3.34;100.00;152222.97;5050778;28;20470;-77
2022/04/10 00:21:56;;;;;;;6.10;3.60;;;;;;;3.32;100.00;152216.53;5048749;28;20486;-76
2022/04/10 00:24:32;;;;;;;6.13;3.23;;;;;;;3.35;100.00;152225.56;5047045;28;20809;-76
2022/04/10 00:27:07;;;;;;;4.23;3.60;;;;;;;3.28;100.00;152207.56;5048582;28;20538;-76
2022/04/10 00:29:46;;;;;;;6.43;3.60;;;;;;;3.29;100.00;152210.09;5049958;28;20434;-76
2022/04/10 00:32:26;;;;;;;4.47;3.37;;;;;;;3.26;100.00;152201.06;5053869;28;20968;-76
2022/04/10 00:35:02;;;;;;;5.93;3.67;;;;;;;3.24;100.00;152197.22;5049293;28;20439;-76
2022/04/10 00:37:39;;;;;;;4.67;3.50;;;;;;;3.24;100.00;152197.22;5051360;28;20442;-76
2022/04/10 00:40:14;;;;;;;4.70;3.60;;;;;;;3.23;100.00;152194.63;5053109;28;20563;-76
2022/04/10 00:42:51;;;;;;;4.20;3.30;;;;;;;3.22;100.00;152190.81;5034459;28;20442;-76
2022/04/10 00:45:28;;;;;;;4.57;3.93;;;;;;;3.26;100.00;152202.38;5054415;28;20490;-76
2022/04/10 00:48:04;;;;;;;5.77;4.20;;;;;;;3.21;100.00;152189.50;5051270;28;21044;-76
2022/04/10 00:51:40;;;;;;;4.87;3.70;;;;;;;3.22;100.00;152192.09;5047756;28;20446;-76
2022/04/10 00:53:39;;;;;;;5.33;3.50;;;;;;;3.24;100.00;152195.94;5052301;28;20937;-76
2022/04/10 00:56:15;;;;;;;6.97;4.07;;;;;;;3.20;100.00;152186.97;5048206;28;20482;-76
2022/04/10 00:58:51;;;;;;;8.40;3.20;;;;;;;3.22;100.00;152190.81;5047596;28;20447;-76
2022/04/10 01:01:28;;;;;;;4.77;3.97;;;;;;;3.26;100.00;152201.06;5042540;28;20486;-74
2022/04/10 01:04:12;;;;;;;4.73;4.23;;;;;;;3.25;100.00;152198.53;5052359;28;20474;-74
2022/04/10 01:06:58;;;;;;;5.87;4.07;;;;;;;3.23;100.00;152194.63;5032898;28;20467;-76
2022/04/10 01:09:34;;;;;;;4.07;3.53;;;;;;;3.21;100.00;152188.22;5052429;28;20453;-76
2022/04/10 01:12:11;;;;;;;5.30;4.00;;;;;;;3.17;100.00;152179.22;5031308;28;20450;-76
2022/04/10 01:14:48;;;;;;;4.40;3.90;;;;;;;3.13;100.00;152168.91;5032320;28;20955;-76
2022/04/10 01:17:29;;;;;;;6.07;4.30;;;;;;;3.10;100.00;152159.94;5035628;28;20441;-76
2022/04/10 01:20:05;;;;;;;5.60;3.83;;;;;;;3.08;100.00;152157.34;5034153;28;20451;-76
2022/04/10 01:22:48;;;;;;;4.00;3.60;;;;;;;3.08;100.00;152156.06;5048890;28;20455;-76
2022/04/10 01:25:23;;;;;;;4.23;3.83;;;;;;;3.08;100.00;152156.06;5051432;28;20519;-76
2022/04/10 01:28:01;;;;;;;5.73;4.50;;;;;;;3.07;99.46;152153.50;5035484;28;20568;-76
2022/04/10 01:30:39;;;;;;;4.90;3.53;;;;;;;3.10;100.00;152161.19;5035993;28;20798;-76
2022/04/10 01:33:15;;;;;;;5.23;3.43;;;;;;;3.06;99.83;152150.91;5032555;28;20551;-76
2022/04/10 01:35:52;;;;;;;4.17;3.53;;;;;;;3.03;100.00;152143.19;5050958;28;20442;-76
2022/04/10 01:38:34;;;;;;;4.13;3.57;;;;;;;3.03;100.00;152143.19;5045447;28;20855;-77
2022/04/10 01:41:12;;;;;;;5.87;3.67;;;;;;;3.06;100.00;152152.22;5039213;28;20459;-77
2022/04/10 01:43:50;;;;;;;4.00;3.47;;;;;;;3.04;100.00;152145.78;5036616;28;20451;-76
2022/04/10 01:46:28;;;;;;;7.43;3.60;;;;;;;3.04;100.00;152145.78;5066463;28;20829;-76
2022/04/10 01:49:05;;;;;;;5.30;3.77;;;;;;;3.06;100.00;152150.91;5041724;28;20945;-76
2022/04/10 01:51:41;;;;;;;4.30;3.90;;;;;;;3.06;100.00;152150.91;5053978;28;20450;-75
2022/04/10 01:54:18;;;;;;;4.70;3.60;;;;;;;3.10;100.00;152159.94;5057798;28;20458;-76
2022/04/10 01:56:54;;;;;;;7.23;4.70;;;;;;;3.10;100.00;152161.19;5035687;28;20544;-76
2022/04/10 01:59:29;;;;;;;4.60;3.73;;;;;;;3.09;100.00;152158.66;5035074;28;20450;-77
2022/04/10 02:02:06;;;;;;;5.57;4.03;;;;;;;3.12;100.00;152166.38;5037768;28;20501;-76
2022/04/10 02:04:41;;;;;;;6.33;3.90;;;;;;;3.14;100.00;152171.50;5053073;28;20474;-76
2022/04/10 02:07:17;;;;;;;4.30;3.67;;;;;;;3.13;100.00;152168.91;5040327;28;20484;-77
2022/04/10 02:09:54;;;;;;;6.47;4.10;;;;;;;3.16;100.00;152175.34;5036858;28;20462;-76
2022/04/10 02:12:33;;;;;;;4.80;3.90;;;;;;;3.14;100.00;152170.22;5051407;28;20450;-76
2022/04/10 02:15:09;;;;;;;9.23;3.70;;;;;;;3.15;100.00;152172.81;5035583;28;20442;-76
2022/04/10 02:17:46;;;;;;;6.60;4.17;;;;;;;3.18;100.00;152181.78;5048695;28;20447;-76
2022/04/10 02:20:22;;;;;;;5.87;4.40;;;;;;;3.19;100.00;152183.06;5053427;28;20446;-76
2022/04/10 02:22:58;;;;;;;5.20;4.00;;;;;;;3.19;100.00;152183.06;5039474;28;20458;-76
2022/04/10 02:25:35;;;;;;;5.30;4.23;;;;;;;3.19;100.00;152184.38;5052433;28;20458;-76
2022/04/10 02:28:10;;;;;;;6.43;4.00;;;;;;;3.18;100.00;152181.78;5040060;28;20443;-76
2022/04/10 02:30:52;;;;;;;6.37;4.00;;;;;;;3.16;100.00;152176.66;5036471;28;20423;-77
2022/04/10 02:33:28;;;;;;;6.43;4.40;;;;;;;3.14;100.00;152171.50;5055895;28;20513;-76
2022/04/10 02:36:05;;;;;;;4.47;4.03;;;;;;;3.10;100.00;152159.94;5049532;28;20945;-76
2022/04/10 02:38:41;;;;;;;4.57;3.73;;;;;;;3.09;100.00;152158.66;5053723;28;20540;-76
2022/04/10 02:41:18;;;;;;;5.73;4.40;;;;;;;3.04;100.00;152145.78;5036086;28;21358;-76
2022/04/10 02:43:55;;;;;;;4.07;3.67;;;;;;;2.99;100.00;152132.91;5037811;28;20794;-76
2022/04/10 02:46:31;;;;;;;4.60;4.20;;;;;;;2.90;100.00;152109.75;5048869;28;20873;-76
2022/04/10 02:49:07;;;;;;;5.63;3.47;;;;;;;2.88;100.00;152104.59;5033798;28;20462;-76
2022/04/10 02:51:44;;;;;;;6.30;4.30;;;;;;;2.87;100.00;152103.31;5049907;28;20454;-76
2022/04/10 02:54:20;;;;;;;4.90;4.37;;;;;;;2.86;100.00;152099.47;5055426;28;20454;-76
2022/04/10 02:56:58;;;;;;;4.80;3.90;;;;;;;2.81;100.00;152086.56;5038009;28;20960;-76
2022/04/10 02:59:34;;;;;;;9.50;4.20;;;;;;;2.74;100.00;152068.56;5067239;28;20825;-77
2022/04/10 03:02:10;;;;;;;5.13;4.10;;;;;;;2.70;100.00;152058.31;5035355;28;20474;-76
2022/04/10 03:04:46;;;;;;;4.87;4.00;;;;;;;2.69;100.00;152055.72;5052693;28;20445;-76
2022/04/10 03:07:21;;;;;;;5.90;4.63;;;;;;;2.63;100.00;152040.25;5039515;28;20477;-76
2022/04/10 03:09:57;;;;;;;5.30;4.40;;;;;;;2.62;100.00;152037.72;5054817;28;20792;-77
2022/04/10 03:12:35;;;;;;;9.30;5.50;;;;;;;2.55;100.00;152020.97;5034983;28;20548;-77
2022/04/10 03:15:12;;;;;;;5.10;3.87;;;;;;;2.56;100.00;152022.28;5038636;28;20461;-77
2022/04/10 03:17:48;;;;;;;5.43;4.00;;;;;;;2.51;100.00;152009.41;5036724;28;20557;-77
2022/04/10 03:20:24;;;;;;;5.70;3.97;;;;;;;2.49;100.00;152004.28;5035298;28;20447;-77
2022/04/10 03:23:00;;;;;;;5.80;4.90;;;;;;;2.45;100.00;151995.28;5033937;28;20446;-77
2022/04/10 03:25:36;;;;;;;7.50;5.03;;;;;;;2.42;100.00;151988.84;5037255;28;20479;-77
2022/04/10 03:28:13;;;;;;;4.63;4.13;;;;;;;2.39;100.00;151981.13;5036474;28;20549;-77
2022/04/10 03:30:49;;;;;;;5.10;4.60;;;;;;;2.38;100.00;151977.28;5035198;28;20458;-76
2022/04/10 03:33:26;;;;;;;6.13;4.70;;;;;;;2.36;100.00;151972.09;5038611;28;20442;-77
2022/04/10 03:36:02;;;;;;;7.50;5.50;;;;;;;2.31;100.00;151960.53;5037063;28;20857;-77
2022/04/10 03:38:38;;;;;;;6.77;4.87;;;;;;;2.24;100.00;151942.56;5035538;28;21070;-76
2022/04/10 03:41:15;;;;;;;5.80;4.67;;;;;;;2.24;100.00;151942.56;5037168;28;20443;-76
2022/04/10 03:43:52;;;;;;;5.23;4.73;;;;;;;2.19;100.00;151929.72;5053888;28;20459;-76
2022/04/10 03:46:28;;;;;;;5.77;5.00;;;;;;;2.22;100.00;151937.44;5049078;28;20548;-76
2022/04/10 03:49:07;;;;;;;5.77;5.10;;;;;;;2.20;100.00;151932.25;5031819;28;20511;-76
2022/04/10 03:51:43;;;;;;;5.70;4.97;;;;;;;2.16;100.00;151921.97;5036216;28;20489;-76
2022/04/10 03:54:20;;;;;;;9.13;5.87;;;;;;;2.13;100.00;151912.97;5052851;28;20443;-76
2022/04/10 03:56:56;;;;;;;6.53;5.53;;;;;;;2.13;100.00;151914.25;5045276;28;21255;-76
2022/04/10 03:59:34;;;;;;;7.33;5.73;;;;;;;2.08;100.00;151900.13;5038464;28;20532;-76
2022/04/10 04:02:10;;;;;;;5.90;4.97;;;;;;;2.08;100.00;151901.41;5029216;28;20569;-76
2022/04/10 04:04:46;;;;;;;5.80;5.07;;;;;;;2.09;100.00;151903.94;5035710;28;20446;-76
2022/04/10 04:07:24;;;;;;;7.07;6.27;;;;;;;2.07;100.00;151898.81;5034386;28;20482;-76
2022/04/10 04:10:00;;;;;;;7.60;6.47;;;;;;;2.07;100.00;151897.53;5052907;28;20422;-74
2022/04/10 04:12:37;;;;;;;6.40;5.60;;;;;;;2.07;100.00;151898.81;5029988;28;20457;-76
2022/04/10 04:15:14;;;;;;;6.10;5.50;;;;;;;2.07;100.00;151897.53;5032670;28;20446;-76
2022/04/10 04:17:50;;;;;;;10.47;6.10;;;;;;;2.06;100.00;151895.00;5048710;28;20446;-76
2022/04/10 04:20:26;;;;;;;7.07;5.73;;;;;;;2.05;100.00;151893.69;5036721;28;20444;-76
2022/04/10 04:23:01;;;;;;;7.13;6.43;;;;;;;2.05;100.00;151893.69;5031586;28;20458;-77
2022/04/10 04:25:38;;;;;;;7.50;6.00;;;;;;;2.08;100.00;151900.13;5034977;28;20443;-76
2022/04/10 04:28:15;;;;;;;7.53;6.37;;;;;;;2.09;100.00;151903.94;5035257;28;20442;-76
2022/04/10 04:30:52;;;;;;;6.90;5.70;;;;;;;2.13;100.00;151912.97;5033752;28;20442;-76
2022/04/10 04:33:28;;;;;;;7.73;5.90;;;;;;;2.14;100.00;151916.84;5030612;28;20583;-76
2022/04/10 04:36:05;;;;;;;9.27;6.57;;;;;;;2.24;100.00;151942.56;5049182;28;20446;-76
2022/04/10 04:38:40;;;;;;;9.30;6.27;;;;;;;2.32;100.00;151963.13;5046240;28;20466;-76
2022/04/10 04:41:19;;;;;;;7.43;6.53;;;;;;;2.31;100.00;151960.53;5033511;28;20830;-76
2022/04/10 04:43:57;;;;;;;7.57;6.53;;;;;;;2.34;100.00;151968.25;5037905;28;20459;-76
2022/04/10 04:46:34;;;;;;;8.43;6.33;;;;;;;2.35;100.00;151969.56;5043047;28;20911;-76
2022/04/10 04:49:09;;;;;;;10.17;6.60;;;;;;;2.41;100.00;151984.97;5031867;28;20486;-76
2022/04/10 04:51:45;;;;;;;7.73;6.30;;;;;;;2.41;100.00;151986.25;5048658;28;20438;-76
2022/04/10 04:54:22;;;;;;;9.80;7.20;;;;;;;2.44;100.00;151993.97;5034730;28;20508;-76
2022/04/10 04:57:02;;;;;;;9.80;7.00;;;;;;;2.47;100.00;152001.69;5044830;28;20856;-74
2022/04/10 04:59:44;;;;;;;9.57;8.00;;;;;;;2.53;100.00;152015.84;5034109;28;20454;-75
2022/04/10 05:02:22;;;;;;;7.90;6.57;;;;;;;2.53;100.00;152015.84;5034311;28;20482;-75
2022/04/10 05:04:59;;;;;;;7.57;6.80;;;;;;;2.55;100.00;152019.69;5034608;28;20940;-75
2022/04/10 05:07:34;;;;;;;7.13;6.43;;;;;;;2.59;100.00;152031.28;5034170;28;20862;-75
2022/04/10 05:10:10;;;;;;;8.07;6.63;;;;;;;2.60;100.00;152033.84;5033215;28;20450;-75
2022/04/10 05:12:47;;;;;;;7.83;6.70;;;;;;;2.62;100.00;152037.72;5033043;28;20565;-75
2022/04/10 05:15:25;;;;;;;7.37;6.57;;;;;;;2.64;100.00;152044.16;5049892;28;20446;-75
2022/04/10 05:18:03;;;;;;;7.43;6.47;;;;;;;2.66;100.00;152048.00;5032691;28;20450;-75
2022/04/10 05:20:41;;;;;;;7.73;6.93;;;;;;;2.69;100.00;152055.72;5028567;28;20485;-75
2022/04/10 05:23:28;;;;;;;8.00;7.17;;;;;;;2.70;100.00;152058.31;5034640;28;20548;-75
2022/04/10 05:26:17;;;;;;;9.20;7.00;;;;;;;2.74;100.00;152068.56;5036632;28;20506;-76
2022/04/10 05:28:58;;;;;;;8.83;6.40;;;;;;;2.74;100.00;152068.56;5048125;28;20454;-75
2022/04/10 05:31:33;;;;;;;8.73;6.97;;;;;;;2.80;100.00;152085.31;5049877;28;20526;-75
2022/04/10 05:34:11;;;;;;;8.00;6.27;;;;;;;2.79;100.00;152082.72;5036486;28;20825;-75
2022/04/10 05:36:47;;;;;;;7.87;6.57;;;;;;;2.89;100.00;152107.16;5033766;28;20439;-75
2022/04/10 05:39:22;;;;;;;8.73;7.27;;;;;;;2.92;100.00;152116.16;5035456;28;20450;-75
2022/04/10 05:41:58;;;;;;;8.73;6.37;;;;;;;2.99;100.00;152132.91;5032922;28;20450;-76
2022/04/10 05:44:34;;;;;;;9.27;7.37;;;;;;;3.00;100.00;152136.75;5036013;28;20534;-76
2022/04/10 05:47:11;;;;;;;7.63;6.13;;;;;;;3.02;100.00;152141.91;5034304;28;20481;-76
2022/04/10 05:49:49;;;;;;;8.40;6.60;;;;;;;3.12;100.00;152165.06;5034884;28;20535;-76
2022/04/10 05:52:25;;;;;;;10.00;6.73;;;;;;;3.18;99.07;152181.78;5037958;28;20560;-76
2022/04/10 05:55:00;;;;;;;7.10;6.10;;;;;;;3.24;99.47;152197.22;5052679;28;20438;-76
2022/04/10 05:57:39;;;;;;;8.60;6.37;;;;;;;3.32;99.96;152217.81;5048594;28;20452;-77
2022/04/10 06:00:16;;;;;;;7.40;6.57;;;;;;;3.41;98.31;152241.00;5050208;28;20447;-76
2022/04/10 06:03:02;;;;;;;7.83;6.60;;;;;;;3.47;97.24;152255.13;5032581;28;20486;-76
2022/04/10 06:05:39;;;;;;;8.50;6.70;;;;;;;3.45;98.45;152250.00;5031949;28;20446;-76
2022/04/10 06:08:21;;;;;;;7.23;6.37;;;;;;;3.64;97.66;152298.91;5032053;28;20880;-76
2022/04/10 06:10:57;;;;;;;8.03;6.10;;;;;;;4.09;99.57;152414.81;5031756;28;20538;-77
2022/04/10 06:13:33;;;;;;;6.73;6.13;;;;;;;4.62;96.95;152548.75;5035318;28;20798;-76
2022/04/10 06:16:14;;;;;;;6.87;6.03;;;;;;;4.97;95.28;152638.97;5035067;28;20438;-77
2022/04/10 06:18:52;;;;;;;8.47;6.70;;;;;;;5.36;92.87;152738.22;5028193;28;20450;-76
2022/04/10 06:21:36;;;;;;;7.57;6.03;;;;;;;5.59;88.62;152797.50;5045822;28;20434;-76
2022/04/10 06:24:13;;;;;;;9.17;5.60;;;;;;;5.51;87.64;152776.88;5032908;28;20450;-76
2022/04/10 06:26:51;;;;;;;6.43;5.30;;;;;;;5.44;87.60;152758.84;5030211;28;20469;-76
2022/04/10 06:29:27;;;;;;;5.33;4.83;;;;;;;5.33;88.46;152731.78;5036177;28;20435;-76
2022/04/10 06:32:08;;;;;;;6.53;5.30;;;;;;;5.36;87.89;152738.22;5037683;28;20448;-76
2022/04/10 06:34:50;;;;;;;6.70;5.70;;;;;;;5.21;90.34;152699.56;5035361;28;20450;-76
2022/04/10 06:37:27;;;;;;;7.60;5.50;;;;;;;5.10;89.49;152672.47;5053703;28;20473;-76
2022/04/10 06:40:04;;;;;;;7.70;5.40;;;;;;;5.18;89.33;152693.09;5034897;28;20482;-77
2022/04/10 06:42:40;;;;;;;6.43;5.67;;;;;;;5.27;88.52;152715.03;5054274;28;20813;-77
2022/04/10 06:45:31;;;;;;;6.50;5.10;;;;;;;5.29;89.67;152720.19;5050094;28;20476;-77
2022/04/10 06:48:19;;;;;;;5.53;5.03;;;;;;;5.39;87.82;152745.94;5053736;28;20999;-76
2022/04/10 06:50:58;;;;;;;6.10;5.50;;;;;;;5.39;87.77;152745.94;5032031;28;20450;-77
2022/04/10 06:53:39;;;;;;;6.43;5.13;;;;;;;5.29;84.22;152720.19;5036308;28;20865;-76
2022/04/10 06:56:16;;;;;;;5.43;4.93;;;;;;;5.38;87.96;152744.66;5036775;28;20857;-76
2022/04/10 06:58:54;;;;;;;5.93;4.60;;;;;;;5.40;86.99;152749.81;5035138;28;20853;-76
2022/04/10 07:01:30;;;;;;;6.20;5.50;;;;;;;5.47;87.17;152766.59;5038071;28;20470;-77
2022/04/10 07:04:06;;;;;;;7.03;5.60;;;;;;;5.39;88.45;152745.94;5031608;28;20438;-76
2022/04/10 07:06:46;;;;;;;5.50;5.00;;;;;;;5.50;86.20;152774.31;5033021;28;20499;-77
2022/04/10 07:09:23;;;;;;;6.50;5.17;;;;;;;5.62;87.99;152803.97;5032753;28;20450;-76
2022/04/10 07:12:00;;;;;;;6.03;5.40;;;;;;;5.69;85.99;152822.03;5032574;28;21167;-76
2022/04/10 07:14:46;;;;;;;5.43;4.60;;;;;;;5.74;88.23;152836.22;5035105;28;20444;-77
2022/04/10 07:17:22;;;;;;;5.97;5.37;;;;;;;5.77;86.08;152843.94;5033468;28;20532;-76
2022/04/10 07:20:04;;;;;;;6.30;5.20;;;;;;;5.86;84.74;152865.91;5046611;28;20568;-76
2022/04/10 07:25:36;;;;;;;5.80;4.90;;;;;;;6.04;85.35;152913.63;5029635;28;20976;-76
2022/04/10 07:28:12;;;;;;;5.50;4.97;;;;;;;6.13;85.85;152936.88;5033294;28;20474;-76
2022/04/10 07:30:51;;;;;;;6.03;5.53;;;;;;;6.20;85.26;152953.63;5030233;28;20450;-77
2022/04/10 07:33:28;;;;;;;6.10;4.93;;;;;;;6.26;85.00;152967.81;5032700;28;20455;-76
2022/04/10 07:36:09;;;;;;;5.47;4.83;;;;;;;6.33;84.57;152985.91;5033881;28;20446;-76
2022/04/10 07:38:48;;;;;;;5.10;4.60;;;;;;;6.13;86.17;152936.88;5032721;28;20446;-76
2022/04/10 07:41:32;;;;;;;5.93;4.53;;;;;;;6.25;83.75;152966.53;5028225;28;20467;-76
2022/04/10 07:44:10;;;;;;;7.50;4.80;;;;;;;6.38;80.60;153000.06;5047380;28;20450;-76
2022/04/10 07:49:39;;;;;;;6.13;5.30;;;;;;;6.52;82.71;153034.91;5047068;28;20451;-76
2022/04/10 07:52:21;;;;;;;5.57;4.83;;;;;;;6.53;80.19;153037.50;5046196;28;20449;-76
2022/04/10 07:55:07;;;;;;;7.50;5.00;;;;;;;6.58;77.95;153051.72;5034882;28;20442;-76
2022/04/10 07:57:50;;;;;;;5.40;4.90;;;;;;;6.79;81.76;153103.31;5029200;28;20455;-76
2022/04/10 08:00:32;;;;;;;5.67;4.77;;;;;;;6.88;80.74;153127.88;5046588;28;20455;-76
2022/04/10 08:03:10;;;;;;;5.63;5.13;;;;;;;6.91;79.98;153135.59;5050812;28;20476;-76
2022/04/10 08:06:25;;;;;;;6.47;5.87;;;;;;;7.07;80.61;153175.66;5050844;28;20554;-76
2022/04/10 08:09:07;;;;;;;7.60;5.60;;;;;;;7.19;81.04;153207.91;5051902;28;20470;-76
2022/04/10 08:11:43;;;;;;;7.57;5.30;;;;;;;7.27;78.10;153228.56;5032651;28;20996;-76
2022/04/10 08:14:20;;;;;;;6.27;5.67;;;;;;;7.30;79.34;153236.34;5052534;28;20460;-76
2022/04/10 08:16:57;;;;;;;6.83;5.60;;;;;;;7.51;79.11;153287.97;5050774;28;20438;-76
2022/04/10 08:19:33;;;;;;;6.00;5.20;;;;;;;7.51;74.27;153287.97;5051357;28;20463;-76
2022/04/10 08:22:09;;;;;;;5.90;5.30;;;;;;;7.43;73.73;153267.31;5031172;28;20816;-76
2022/04/10 08:24:44;;;;;;;6.23;5.63;;;;;;;7.36;69.55;153251.78;5047492;28;20427;-76
2022/04/10 08:27:22;;;;;;;7.00;6.30;;;;;;;7.61;74.46;153313.78;5065220;28;20473;-77
2022/04/10 08:29:59;;;;;;;5.77;5.17;;;;;;;7.55;69.50;153298.28;5046132;28;20473;-76
2022/04/10 08:32:38;;;;;;;5.37;4.80;;;;;;;7.59;73.91;153309.94;5050982;28;20449;-76
2022/04/10 08:35:14;;;;;;;5.63;5.10;;;;;;;7.68;73.01;153331.84;5049261;28;20461;-77
2022/04/10 08:37:51;;;;;;;6.27;5.17;;;;;;;7.63;71.72;153318.94;5036676;28;20450;-76
2022/04/10 08:40:28;;;;;;;6.40;5.37;;;;;;;7.52;67.97;153291.81;5048388;28;20542;-76
2022/04/10 08:43:03;;;;;;;5.23;4.63;;;;;;;7.56;71.55;153300.88;5050044;28;20455;-76
2022/04/10 08:45:40;;;;;;;7.67;5.77;;;;;;;7.40;69.08;153259.53;5033838;28;20541;-77
2022/04/10 08:48:16;;;;;;;8.63;6.87;;;;;;;7.26;68.70;153225.97;5048978;28;20499;-76
2022/04/10 08:50:52;;;;;;;5.73;5.20;;;;;;;7.33;74.61;153242.78;5050464;28;20438;-76
2022/04/10 08:53:27;;;;;;;5.63;5.00;;;;;;;7.51;70.23;153289.28;5066688;28;20450;-76
2022/04/10 08:56:03;;;;;;;5.50;5.00;;;;;;;7.53;69.53;153293.13;5060655;28;20432;-76
2022/04/10 08:58:39;;;;;;;4.63;4.17;;;;;;;7.59;68.15;153308.63;5047620;28;20452;-76
2022/04/10 09:01:18;;;;;;;5.37;4.50;;;;;;;7.67;68.43;153330.59;5032656;28;20561;-76
2022/04/10 09:03:53;;;;;;;5.50;4.73;;;;;;;7.65;69.32;153324.16;5045317;28;20482;-76
2022/04/10 09:06:32;;;;;;;6.63;4.27;;;;;;;7.74;66.76;153348.69;5046957;28;20425;-76
2022/04/10 09:09:11;;;;;;;5.77;4.50;;;;;;;7.52;64.01;153290.56;5044930;28;20478;-76
2022/04/10 09:11:47;;;;;;;5.70;4.40;;;;;;;7.61;70.31;153313.78;5034149;28;20439;-76
2022/04/10 09:14:23;;;;;;;5.63;4.40;;;;;;;7.68;72.75;153331.84;5040601;28;20446;-76
2022/04/10 09:17:14;;;;;;;4.23;3.83;;;;;;;7.67;69.19;153329.31;5049767;28;20579;-76
2022/04/10 09:19:51;;;;;;;4.70;4.00;;;;;;;7.73;65.20;153346.06;5045535;28;20432;-76
2022/04/10 09:22:29;;;;;;;5.80;4.20;;;;;;;7.69;65.80;153335.75;5046260;28;20458;-76
2022/04/10 09:25:09;;;;;;;4.90;4.40;;;;;;;7.80;67.02;153362.88;5050654;28;20442;-76
2022/04/10 09:27:47;;;;;;;5.60;3.60;;;;;;;7.91;64.93;153392.63;5048136;28;20869;-76
2022/04/10 09:30:23;;;;;;;5.10;4.57;;;;;;;8.14;64.92;153450.75;5030498;28;20458;-76
2022/04/10 09:33:00;;;;;;;4.57;4.00;;;;;;;8.24;64.98;153476.59;5035137;28;20490;-76
2022/04/10 09:35:43;;;;;;;5.10;4.60;;;;;;;8.05;62.55;153426.22;5031719;28;20545;-76
2022/04/10 09:38:30;;;;;;;5.53;4.00;;;;;;;7.81;70.26;153365.50;5047703;28;20471;-76
2022/04/10 09:41:14;;;;;;;4.37;3.97;;;;;;;7.72;68.26;153343.53;5058196;28;20762;-76
2022/04/10 09:43:50;;;;;;;5.73;5.13;;;;;;;7.59;67.00;153308.63;5041741;28;20436;-77
2022/04/10 09:46:26;;;;;;;6.20;5.50;;;;;;;7.41;71.94;153262.16;5027181;28;20450;-76
2022/04/10 09:49:05;;;;;;;5.37;4.87;;;;;;;7.46;72.99;153275.06;5047676;28;20466;-76
2022/04/10 09:52:01;;;;;;;6.13;4.63;;;;;;;7.46;69.94;153275.06;5045049;28;20435;-76
2022/04/10 09:54:38;;;;;;;5.00;4.50;;;;;;;7.58;69.43;153306.03;5042526;28;20466;-76
2022/04/10 09:57:15;;;;;;;5.00;4.40;;;;;;;7.63;66.85;153320.25;5033174;28;20430;-77
2022/04/10 09:59:52;;;;;;;4.80;4.30;;;;;;;7.53;65.57;153293.13;5049146;28;20446;-77
2022/04/10 10:02:28;;;;;;;6.83;4.70;;;;;;;7.50;69.91;153286.66;5047083;28;20479;-76
2022/04/10 10:05:06;;;;;;;5.03;4.53;;;;;;;7.68;69.57;153331.84;5052296;28;20446;-76
2022/04/10 10:07:42;;;;;;;4.73;3.67;;;;;;;7.91;68.89;153391.31;5044454;28;20480;-76
2022/04/10 10:10:20;;;;;;;6.33;4.30;;;;;;;8.10;64.51;153440.38;5029657;28;20449;-76
2022/04/10 10:12:59;;;;;;;3.37;3.07;;;;;;;8.11;63.06;153443.00;5051856;28;20446;-76
2022/04/10 10:15:36;;;;;;;5.23;3.90;;;;;;;8.16;62.41;153454.59;5034550;28;20469;-76
2022/04/10 10:18:13;;;;;;;4.43;4.03;;;;;;;8.21;61.16;153467.50;5038509;28;20533;-77
2022/04/10 10:20:51;;;;;;;4.50;3.80;;;;;;;8.32;63.02;153496.00;5053044;28;20937;-76
2022/04/10 10:23:26;;;;;;;5.00;4.00;;;;;;;8.34;62.44;153502.47;5069289;28;20474;-76
2022/04/10 10:26:12;;;;;;;4.00;3.57;;;;;;;8.41;64.84;153520.59;5035680;28;20983;-76
2022/04/10 10:29:10;;;;;;;3.90;3.50;;;;;;;8.64;67.54;153577.44;5052835;28;20490;-76
2022/04/10 10:31:53;;;;;;;5.13;3.83;;;;;;;8.56;60.39;153559.38;5048261;28;20448;-76
2022/04/10 10:34:29;;;;;;;4.53;3.10;;;;;;;8.75;66.39;153605.91;5052988;28;20434;-76
2022/04/10 10:37:06;;;;;;;4.50;3.23;;;;;;;8.79;61.47;153616.25;5063014;28;20447;-76
2022/04/10 10:39:50;;;;;;;6.80;3.80;;;;;;;8.74;60.86;153603.28;5054077;28;20426;-77
2022/04/10 10:42:26;;;;;;;5.77;3.70;;;;;;;8.68;60.60;153589.13;5064985;28;20452;-76
2022/04/10 10:45:02;;;;;;;5.30;3.53;;;;;;;8.61;64.81;153569.69;5054603;28;20790;-76
2022/04/10 10:47:39;;;;;;;4.93;4.13;;;;;;;8.55;69.70;153556.75;5050675;28;20462;-76
2022/04/10 10:50:26;;;;;;;5.93;4.47;;;;;;;8.25;69.99;153479.19;5034777;28;20469;-76
2022/04/10 10:53:09;;;;;;;6.27;4.93;;;;;;;8.23;71.07;153474.03;5052323;28;20442;-76
2022/04/10 10:55:46;;;;;;;5.67;5.00;;;;;;;8.13;70.77;153448.13;5043309;28;20435;-76
2022/04/10 10:58:31;;;;;;;5.63;4.90;;;;;;;7.90;74.00;153388.72;5055268;28;20554;-76
2022/04/10 11:01:08;;;;;;;5.87;4.50;;;;;;;7.80;75.36;153362.88;5049541;28;20450;-76
2022/04/10 11:03:59;;;;;;;6.40;5.27;;;;;;;7.61;73.03;153313.78;5050822;28;20443;-76
2022/04/10 11:06:45;;;;;;;6.70;5.40;;;;;;;7.63;72.73;153318.94;5068762;28;20446;-76
2022/04/10 11:09:23;;;;;;;5.80;4.90;;;;;;;7.62;76.60;153316.41;5064471;28;20554;-76
2022/04/10 11:12:00;;;;;;;6.57;5.83;;;;;;;7.52;71.94;153290.56;5048443;28;20815;-76
2022/04/10 11:14:38;;;;;;;10.07;9.07;;;;;;;7.39;71.94;153257.00;5030334;28;20895;-77
2022/04/10 11:17:18;;;;;;;6.73;6.03;;;;;;;7.23;71.83;153218.22;5043764;28;21043;-76
2022/04/10 11:19:58;;;;;;;7.20;6.07;;;;;;;7.40;79.91;153260.84;5033330;28;20446;-76
2022/04/10 11:22:35;;;;;;;8.83;6.17;;;;;;;7.59;82.98;153309.94;5027679;28;20454;-76
2022/04/10 11:25:13;;;;;;;8.90;6.57;;;;;;;7.56;75.95;153302.19;5047782;28;20457;-77
2022/04/10 11:27:50;;;;;;;6.03;5.27;;;;;;;7.52;72.53;153290.56;5044589;28;20493;-76
2022/04/10 11:30:28;;;;;;;5.70;4.67;;;;;;;7.54;73.87;153295.72;5040471;28;20446;-76
2022/04/10 11:33:06;;;;;;;5.13;4.27;;;;;;;7.75;76.49;153351.28;5064510;28;20443;-76
2022/04/10 11:35:42;;;;;;;6.70;5.53;;;;;;;7.94;78.84;153400.34;5045239;28;20482;-76
2022/04/10 11:38:18;;;;;;;4.90;4.50;;;;;;;8.01;76.63;153415.84;5046814;28;20478;-77
2022/04/10 11:40:58;;;;;;;4.43;3.87;;;;;;;8.08;79.76;153433.94;5064303;28;20474;-76
2022/04/10 11:43:33;;;;;;;6.13;4.20;;;;;;;8.12;71.41;153445.59;5066356;28;20552;-77
2022/04/10 11:46:10;;;;;;;3.80;3.50;;;;;;;8.17;75.83;153458.50;5051506;28;20463;-76
2022/04/10 11:48:45;;;;;;;4.33;3.93;;;;;;;8.20;75.92;153464.97;5038517;28;20488;-76
2022/04/10 11:51:21;;;;;;;4.57;4.17;;;;;;;8.15;71.27;153453.34;5065094;28;20466;-76
2022/04/10 11:53:57;;;;;;;4.47;3.70;;;;;;;8.16;73.86;153455.91;5066341;28;20450;-77
2022/04/10 11:56:33;;;;;;;4.87;3.93;;;;;;;8.21;71.96;153468.81;5045805;28;20439;-76
2022/04/10 11:59:09;;;;;;;4.33;3.93;;;;;;;8.29;67.98;153489.56;5049745;28;20770;-76
2022/04/10 12:01:46;;;;;;;6.17;4.53;;;;;;;8.13;66.46;153446.88;5044815;28;20462;-77
2022/04/10 12:04:23;;;;;;;5.10;4.13;;;;;;;8.24;71.82;153475.28;5034411;28;20442;-77
2022/04/10 12:07:11;;;;;;;4.60;4.07;;;;;;;8.26;70.46;153481.75;5047394;28;20435;-76
2022/04/10 12:09:48;;;;;;;5.83;4.83;;;;;;;8.28;65.43;153487.00;5032545;28;20464;-76
2022/04/10 12:12:36;;;;;;;5.60;5.00;;;;;;;8.46;65.24;153533.53;5065187;28;20779;-76
2022/04/10 12:15:18;;;;;;;5.37;4.47;;;;;;;8.66;65.32;153582.66;5033946;28;20537;-76
2022/04/10 12:18:05;;;;;;;4.93;4.30;;;;;;;8.63;68.55;153576.13;5046438;28;21168;-76
2022/04/10 12:20:42;;;;;;;6.13;4.73;;;;;;;8.35;63.69;153503.78;5053242;28;20442;-77
2022/04/10 12:23:19;;;;;;;5.10;4.63;;;;;;;8.28;63.94;153485.69;5045993;28;20463;-77
2022/04/10 12:25:58;;;;;;;5.07;4.57;;;;;;;8.14;63.73;153449.44;5052042;28;20473;-76